Time;durP1;ratioP1;P1;durP2;ratioP2;P2;SDS_P1;SDS_P2;PMS_P1;PMS_P2;Temp;Humidity;BMP_temperature;BMP_pressure;BME280_temperature;BME280_humidity;BME280_pressure;Samples;Min_cycle;Max_cycle;Signal;HPM_P1;HPM_P2
2022/10/21 00:00:17;;;;;;;28.42;17.90;;;;;;;1.48;70.29;97783.56;1759750;80;26087;-83
2022/10/21 00:02:45;;;;;;;23.92;17.10;;;;;;;1.46;70.46;97788.18;1764970;80;26054;-83
2022/10/21 00:05:13;;;;;;;26.45;18.80;;;;;;;1.47;70.46;97787.20;1765111;80;25759;-83
2022/10/21 00:07:39;;;;;;;29.75;19.87;;;;;;;1.45;70.47;97791.33;1765718;80;25261;-84
2022/10/21 00:10:08;;;;;;;30.50;19.70;;;;;;;1.40;70.49;97786.95;1765317;80;25980;-83
2022/10/21 00:12:35;;;;;;;30.45;19.60;;;;;;;1.43;70.56;97788.50;1765395;80;25765;-84
2022/10/21 00:15:05;;;;;;;32.48;21.17;;;;;;;1.42;70.59;97781.50;1765345;80;28249;-83
2022/10/21 00:17:35;;;;;;;31.02;20.88;;;;;;;1.42;70.55;97788.98;1765212;80;26072;-83
2022/10/21 00:20:05;;;;;;;29.95;19.07;;;;;;;1.42;70.58;97784.16;1765072;80;25952;-82
2022/10/21 00:22:31;;;;;;;24.27;16.37;;;;;;;1.42;70.74;97786.81;1765426;80;25918;-82
2022/10/21 00:24:58;;;;;;;24.92;16.67;;;;;;;1.41;70.70;97779.81;1765450;80;25742;-83
2022/10/21 00:27:24;;;;;;;21.27;14.20;;;;;;;1.37;70.83;97775.76;1765174;80;27471;-82
2022/10/21 00:29:51;;;;;;;17.02;12.37;;;;;;;1.39;70.98;97779.12;1765314;80;25702;-84
2022/10/21 00:32:18;;;;;;;19.90;12.53;;;;;;;1.37;71.10;97769.11;1765353;81;25738;-85
2022/10/21 00:34:45;;;;;;;18.32;12.63;;;;;;;1.33;71.47;97769.88;1765537;80;25989;-83
2022/10/21 00:37:13;;;;;;;16.60;12.53;;;;;;;1.28;71.85;97761.52;1765431;80;26063;-83
2022/10/21 00:39:40;;;;;;;17.30;11.45;;;;;;;1.27;72.08;97753.68;1765352;80;27450;-82
2022/10/21 00:42:11;;;;;;;17.42;11.38;;;;;;;1.27;72.22;97749.20;1765417;80;25699;-83
2022/10/21 00:44:40;;;;;;;15.50;11.20;;;;;;;1.31;72.39;97741.28;1764988;80;25914;-84
2022/10/21 00:47:19;;;;;;;15.98;12.25;;;;;;;1.32;72.46;97738.14;1753881;80;26197;-84
2022/10/21 00:49:54;;;;;;;21.85;14.43;;;;;;;1.30;72.71;97734.78;1758614;80;25834;-84
2022/10/21 00:52:22;;;;;;;21.97;13.98;;;;;;;1.26;72.97;97732.89;1744783;80;27446;-83
2022/10/21 00:54:52;;;;;;;17.82;12.70;;;;;;;1.25;72.95;97725.05;1761179;80;25547;-83
2022/10/21 00:57:21;;;;;;;15.65;10.55;;;;;;;1.24;73.06;97718.90;1744368;80;25777;-83
2022/10/21 00:59:53;;;;;;;28.80;19.62;;;;;;;1.28;73.15;97722.95;1765544;80;26218;-82
2022/10/21 01:02:19;;;;;;;26.75;18.42;;;;;;;1.30;73.19;97712.17;1764904;81;25728;-82
2022/10/21 01:04:52;;;;;;;19.07;13.08;;;;;;;1.33;73.33;97711.37;1765339;80;28643;-82
2022/10/21 01:07:19;;;;;;;15.58;10.88;;;;;;;1.39;73.27;97709.95;1748010;80;25680;-82
2022/10/21 01:09:45;;;;;;;16.85;11.35;;;;;;;1.46;73.21;97700.39;1735429;80;26016;-83
2022/10/21 01:12:26;;;;;;;21.00;11.35;;;;;;;1.48;73.17;97693.11;1749308;80;26751;-82
2022/10/21 01:14:57;;;;;;;14.38;9.93;;;;;;;1.51;73.16;97694.15;1721254;81;25898;-83
2022/10/21 01:17:57;;;;;;;15.00;10.53;;;;;;;1.55;73.17;97691.55;1765142;80;27385;-83
2022/10/21 01:21:10;;;;;;;13.90;10.80;;;;;;;1.56;73.23;97681.75;1743124;81;25694;-82
2022/10/21 01:24:12;;;;;;;12.80;10.25;;;;;;;1.59;73.28;97676.94;1749634;81;25774;-84
2022/10/21 01:27:14;;;;;;;13.83;9.90;;;;;;;1.58;73.41;97672.60;1716005;81;26197;-83
2022/10/21 01:30:25;;;;;;;15.45;10.75;;;;;;;1.56;73.49;97669.77;1750077;81;25990;-83
2022/10/21 01:33:08;;;;;;;14.43;10.08;;;;;;;1.59;73.35;97670.78;1724291;81;27423;-83
2022/10/21 01:35:49;;;;;;;11.63;9.00;;;;;;;1.61;73.60;97666.99;1731251;81;26279;-83
2022/10/21 01:38:41;;;;;;;16.17;9.25;;;;;;;1.58;73.72;97671.27;1726803;81;25295;-83
2022/10/21 01:41:25;;;;;;;10.85;9.60;;;;;;;1.55;73.75;97680.91;1702173;82;26058;-83
2022/10/21 01:44:12;;;;;;;14.45;10.13;;;;;;;1.55;73.80;97679.58;1735237;81;26450;-83
2022/10/21 01:46:53;;;;;;;15.88;9.65;;;;;;;1.58;73.77;97675.75;1749619;81;27455;-83
2022/10/21 01:49:28;;;;;;;12.20;9.23;;;;;;;1.60;73.71;97679.11;1712399;81;25677;-83
2022/10/21 01:51:55;;;;;;;12.23;10.13;;;;;;;1.63;73.71;97680.99;1744615;81;26553;-83
2022/10/21 01:54:29;;;;;;;14.00;9.95;;;;;;;1.66;73.67;97687.36;1737187;81;26819;-82
2022/10/21 01:56:58;;;;;;;15.15;9.85;;;;;;;1.64;73.90;97695.14;1749695;81;25794;-84
2022/10/21 01:59:29;;;;;;;13.15;9.55;;;;;;;1.64;74.00;97691.98;1739321;81;28040;-82
2022/10/21 02:01:59;;;;;;;14.18;10.08;;;;;;;1.63;74.01;97684.98;1719254;81;26040;-82
2022/10/21 02:04:28;;;;;;;15.08;10.98;;;;;;;1.64;73.98;97690.66;1739352;81;25268;-83
2022/10/21 02:06:54;;;;;;;16.77;11.68;;;;;;;1.64;73.94;97689.32;1717913;81;26644;-83
2022/10/21 02:09:21;;;;;;;13.93;10.50;;;;;;;1.64;73.93;97687.99;1746763;81;25814;-83
2022/10/21 02:11:51;;;;;;;16.15;10.80;;;;;;;1.61;74.04;97678.97;1742475;81;28276;-83
2022/10/21 02:14:32;;;;;;;17.30;11.10;;;;;;;1.61;74.14;97680.30;1712361;81;25780;-82
2022/10/21 02:16:59;;;;;;;11.40;9.70;;;;;;;1.58;74.25;97676.59;1749384;81;25740;-83
2022/10/21 02:19:27;;;;;;;13.43;10.60;;;;;;;1.55;74.43;97678.25;1752710;80;26788;-83
2022/10/21 02:21:58;;;;;;;13.40;10.13;;;;;;;1.57;74.59;97680.23;1726119;81;25848;-82
2022/10/21 02:24:45;;;;;;;16.07;10.03;;;;;;;1.58;74.67;97680.59;1727911;81;27461;-82
2022/10/21 02:27:11;;;;;;;16.87;9.58;;;;;;;1.59;74.55;97678.27;1732716;81;25726;-82
2022/10/21 02:29:41;;;;;;;18.98;11.33;;;;;;;1.63;74.55;97678.33;1734981;81;25246;-82
2022/10/21 02:32:32;;;;;;;16.82;10.88;;;;;;;1.66;74.49;97675.87;1765445;79;26716;-83
2022/10/21 02:35:10;;;;;;;16.12;10.60;;;;;;;1.68;74.54;97677.41;1803133;79;25669;-82
2022/10/21 02:37:54;;;;;;;15.75;10.63;;;;;;;1.68;74.58;97674.74;1807035;79;28199;-83
2022/10/21 02:40:37;;;;;;;15.32;10.98;;;;;;;1.69;74.59;97665.74;1807343;79;25693;-84
2022/10/21 02:43:08;;;;;;;14.78;10.28;;;;;;;1.71;74.53;97673.09;1807384;79;25688;-82
2022/10/21 02:45:35;;;;;;;13.60;9.63;;;;;;;1.74;74.62;97680.78;1775758;79;25992;-82
2022/10/21 02:48:02;;;;;;;11.25;8.93;;;;;;;1.75;74.68;97680.29;1775634;79;25746;-84
2022/10/21 02:50:29;;;;;;;12.13;9.75;;;;;;;1.77;74.69;97671.17;1805682;79;27564;-83
2022/10/21 02:52:56;;;;;;;12.70;9.85;;;;;;;1.80;74.69;97665.56;1807060;79;26324;-85
2022/10/21 02:55:22;;;;;;;15.83;10.65;;;;;;;1.84;74.64;97659.91;1802440;79;25723;-83
2022/10/21 02:57:49;;;;;;;14.87;10.03;;;;;;;1.86;74.73;97655.28;1775666;79;25970;-82
2022/10/21 03:00:15;;;;;;;14.47;9.98;;;;;;;1.87;74.73;97645.81;1781894;79;25668;-82
2022/10/21 03:02:42;;;;;;;12.82;9.35;;;;;;;1.90;74.74;97655.33;1775581;79;28144;-82
2022/10/21 03:05:09;;;;;;;12.18;9.38;;;;;;;1.84;74.74;97648.77;1742897;80;25893;-82
2022/10/21 03:07:36;;;;;;;13.10;8.48;;;;;;;1.83;74.73;97655.58;1738478;80;25736;-83
2022/10/21 03:10:03;;;;;;;12.65;9.10;;;;;;;1.84;74.89;97650.59;1754813;81;26005;-84
2022/10/21 03:12:29;;;;;;;14.00;9.43;;;;;;;1.80;74.89;97652.74;1736740;81;25841;-83
2022/10/21 03:14:56;;;;;;;13.50;9.65;;;;;;;1.75;74.84;97651.85;1748510;81;27489;-83
2022/10/21 03:17:22;;;;;;;19.15;10.98;;;;;;;1.77;74.83;97645.89;1746435;81;26578;-82
2022/10/21 03:19:49;;;;;;;16.52;11.18;;;;;;;1.81;74.77;97645.10;1763012;79;25667;-84
2022/10/21 03:22:15;;;;;;;15.30;10.50;;;;;;;1.83;74.71;97652.91;1765426;80;26390;-82
2022/10/21 03:24:42;;;;;;;14.30;10.80;;;;;;;1.77;74.77;97640.56;1761440;80;25698;-83
2022/10/21 03:27:08;;;;;;;15.98;10.53;;;;;;;1.71;74.81;97639.82;1748351;80;27323;-83
2022/10/21 03:29:35;;;;;;;12.33;9.90;;;;;;;1.68;74.87;97637.48;1763867;80;25809;-82
2022/10/21 03:32:02;;;;;;;19.85;11.80;;;;;;;1.70;74.87;97634.16;1734873;80;25756;-82
2022/10/21 03:34:28;;;;;;;17.77;12.33;;;;;;;1.70;74.79;97643.47;1755029;81;26759;-83
2022/10/21 03:36:55;;;;;;;16.25;11.18;;;;;;;1.71;74.74;97639.82;1765450;80;26308;-83
2022/10/21 03:39:21;;;;;;;17.75;11.55;;;;;;;1.70;74.70;97638.14;1765466;80;27310;-82
2022/10/21 03:41:48;;;;;;;20.17;11.25;;;;;;;1.71;74.70;97617.20;1765287;80;25874;-84
2022/10/21 03:44:14;;;;;;;19.35;12.45;;;;;;;1.67;74.74;97614.52;1765403;81;25904;-84
2022/10/21 03:46:41;;;;;;;16.12;11.78;;;;;;;1.65;74.84;97612.99;1765348;80;25981;-83
2022/10/21 03:49:09;;;;;;;19.05;10.48;;;;;;;1.63;74.95;97621.12;1764010;80;25780;-84
2022/10/21 03:51:36;;;;;;;13.50;10.30;;;;;;;1.64;74.96;97630.78;1764157;80;27500;-83
2022/10/21 03:54:03;;;;;;;17.60;10.98;;;;;;;1.63;74.91;97619.79;1765241;80;25830;-82
2022/10/21 03:56:29;;;;;;;19.42;12.00;;;;;;;1.65;74.83;97616.98;1765385;80;25727;-83
2022/10/21 03:58:56;;;;;;;18.82;12.70;;;;;;;1.59;74.85;97610.42;1765398;80;26739;-84
2022/10/21 04:01:22;;;;;;;14.50;10.25;;;;;;;1.51;75.05;97613.01;1765619;80;25756;-84
2022/10/21 04:03:49;;;;;;;14.13;10.00;;;;;;;1.49;75.20;97606.99;1745657;79;28349;-83
2022/10/21 04:06:16;;;;;;;15.75;9.95;;;;;;;1.52;75.31;97608.03;1763796;80;26301;-83
2022/10/21 04:08:42;;;;;;;17.50;11.03;;;;;;;1.53;75.34;97608.88;1765501;80;25708;-82
2022/10/21 04:11:09;;;;;;;15.10;10.80;;;;;;;1.53;75.25;97610.20;1743907;80;25991;-82
2022/10/21 04:13:36;;;;;;;13.50;10.38;;;;;;;1.57;75.38;97609.73;1751229;80;25301;-83
2022/10/21 04:16:06;;;;;;;16.65;11.15;;;;;;;1.58;75.28;97598.10;1758380;80;27540;-82
2022/10/21 04:18:33;;;;;;;15.30;11.22;;;;;;;1.59;75.16;97598.94;1765269;80;25698;-84
2022/10/21 04:20:59;;;;;;;17.25;10.80;;;;;;;1.59;75.21;97599.78;1765290;81;25677;-82
2022/10/21 04:23:26;;;;;;;16.50;10.60;;;;;;;1.59;75.23;97597.12;1764629;80;26286;-83
2022/10/21 04:25:52;;;;;;;22.13;12.28;;;;;;;1.63;75.18;97595.84;1761496;80;25697;-84
2022/10/21 04:28:19;;;;;;;22.62;13.80;;;;;;;1.66;75.13;97600.87;1765392;80;27382;-82
2022/10/21 04:30:45;;;;;;;27.90;14.70;;;;;;;1.64;75.12;97587.37;1765571;80;25724;-83
2022/10/21 04:33:12;;;;;;;28.95;14.90;;;;;;;1.61;75.13;97577.02;1765061;80;26301;-83
2022/10/21 04:35:39;;;;;;;30.00;14.85;;;;;;;1.61;75.20;97569.87;1763072;80;26045;-83
2022/10/21 04:38:05;;;;;;;27.87;12.82;;;;;;;1.57;75.26;97560.51;1765579;80;25824;-84
2022/10/21 04:40:32;;;;;;;22.70;13.95;;;;;;;1.56;75.36;97552.70;1736474;81;26369;-84
2022/10/21 04:42:59;;;;;;;17.65;13.62;;;;;;;1.49;75.34;97547.14;1759456;81;25678;-83
2022/10/21 04:45:25;;;;;;;19.95;13.05;;;;;;;1.44;75.37;97546.77;1762554;80;25829;-83
2022/10/21 04:47:52;;;;;;;15.10;11.33;;;;;;;1.43;75.42;97557.06;1763101;80;25916;-83
2022/10/21 04:50:19;;;;;;;20.92;11.25;;;;;;;1.43;75.55;97557.06;1763231;80;25817;-82
2022/10/21 04:52:45;;;;;;;13.38;11.00;;;;;;;1.42;75.64;97558.05;1765437;80;28636;-83
2022/10/21 04:55:11;;;;;;;20.32;10.28;;;;;;;1.46;75.76;97559.41;1765338;81;25885;-83
2022/10/21 04:57:39;;;;;;;17.40;11.22;;;;;;;1.50;75.75;97562.61;1762821;80;25746;-83
2022/10/21 05:00:07;;;;;;;18.45;12.30;;;;;;;1.53;75.72;97565.81;1750097;80;26760;-82
2022/10/21 05:02:34;;;;;;;21.02;11.30;;;;;;;1.57;75.58;97566.35;1760248;81;25715;-83
2022/10/21 05:05:01;;;;;;;14.78;11.20;;;;;;;1.59;75.48;97555.88;1752591;81;27585;-82
2022/10/21 05:07:28;;;;;;;14.45;10.98;;;;;;;1.60;75.51;97560.21;1756108;80;25751;-82
2022/10/21 05:09:55;;;;;;;20.17;11.25;;;;;;;1.56;75.50;97565.52;1745479;80;36434;-82
2022/10/21 05:12:21;;;;;;;19.40;10.82;;;;;;;1.55;75.65;97568.33;1765560;80;27112;-82
2022/10/21 05:14:48;;;;;;;17.55;10.63;;;;;;;1.54;75.64;97568.81;1757434;81;25778;-83
2022/10/21 05:17:15;;;;;;;18.35;12.07;;;;;;;1.54;75.65;97563.50;1735052;80;27408;-82
2022/10/21 05:19:41;;;;;;;23.27;13.00;;;;;;;1.52;75.67;97552.16;1756031;80;25738;-83
2022/10/21 05:22:08;;;;;;;18.15;12.70;;;;;;;1.50;75.67;97553.30;1750173;81;25252;-82
2022/10/21 05:24:34;;;;;;;23.90;12.28;;;;;;;1.51;75.80;97549.16;1750075;81;26018;-82
2022/10/21 05:27:01;;;;;;;21.12;13.65;;;;;;;1.53;75.92;97552.51;1749911;81;25775;-82
2022/10/21 05:29:28;;;;;;;24.98;12.85;;;;;;;1.50;75.91;97543.49;1729520;81;27333;-82
2022/10/21 05:31:54;;;;;;;20.30;12.63;;;;;;;1.48;75.99;97542.80;1720354;81;25695;-83
2022/10/21 05:34:21;;;;;;;20.68;13.72;;;;;;;1.49;76.06;97548.47;1738511;81;25706;-82
2022/10/21 05:36:48;;;;;;;24.15;14.35;;;;;;;1.50;76.06;97555.47;1750150;81;25981;-83
2022/10/21 05:39:15;;;;;;;24.50;13.22;;;;;;;1.49;76.06;97551.12;1734644;81;25795;-83
2022/10/21 05:41:41;;;;;;;16.27;11.78;;;;;;;1.47;76.08;97561.57;1744926;81;28456;-83
2022/10/21 05:44:08;;;;;;;20.72;12.93;;;;;;;1.46;76.14;97566.05;1750049;81;25808;-83
2022/10/21 05:46:34;;;;;;;22.70;17.40;;;;;;;1.47;76.19;97564.23;1738186;81;25823;-82
2022/10/21 05:49:01;;;;;;;21.07;13.53;;;;;;;1.46;76.20;97547.44;1749045;81;26233;-82
2022/10/21 05:51:28;;;;;;;18.45;13.45;;;;;;;1.52;76.18;97564.63;1729762;81;25865;-83
2022/10/21 05:53:57;;;;;;;19.95;14.07;;;;;;;1.58;76.29;97574.16;1727223;81;27342;-82
2022/10/21 05:56:23;;;;;;;16.70;12.82;;;;;;;1.62;76.20;97577.36;1731760;81;26538;-83
2022/10/21 05:58:50;;;;;;;26.17;17.02;;;;;;;1.65;76.18;97576.58;1740929;81;25748;-82
2022/10/21 06:01:17;;;;;;;29.35;16.85;;;;;;;1.65;76.25;97569.08;1719811;81;26036;-82
2022/10/21 06:03:44;;;;;;;22.37;15.43;;;;;;;1.67;76.35;97581.75;1720118;81;25718;-82
2022/10/21 06:06:10;;;;;;;26.75;15.23;;;;;;;1.71;76.43;97589.26;1747345;81;27509;-82
2022/10/21 06:08:38;;;;;;;22.98;14.68;;;;;;;1.79;76.50;97590.69;1750110;81;25920;-83
2022/10/21 06:11:10;;;;;;;25.60;16.27;;;;;;;1.88;76.62;97582.27;1750004;81;25717;-83
2022/10/21 06:13:37;;;;;;;23.47;14.38;;;;;;;1.92;76.86;97580.98;1749366;81;26056;-83
2022/10/21 06:16:05;;;;;;;23.47;14.70;;;;;;;1.99;76.77;97571.88;1750030;81;25700;-83
2022/10/21 06:18:31;;;;;;;21.42;14.33;;;;;;;2.08;76.73;97569.13;1750128;81;27439;-83
2022/10/21 06:20:58;;;;;;;22.35;14.18;;;;;;;2.19;76.87;97570.70;1749727;81;25601;-83
2022/10/21 06:23:26;;;;;;;20.05;14.18;;;;;;;2.31;76.79;97560.63;1749790;81;25757;-82
2022/10/21 06:26:05;;;;;;;33.02;19.52;;;;;;;2.43;76.76;97560.22;1749921;81;26118;-84
2022/10/21 06:28:35;;;;;;;23.47;14.70;;;;;;;2.55;76.81;97552.80;1729402;81;25733;-83
2022/10/21 06:31:02;;;;;;;25.08;15.03;;;;;;;2.68;76.94;97549.70;1750170;81;27373;-83
2022/10/21 06:33:29;;;;;;;22.75;14.18;;;;;;;2.82;76.89;97555.78;1749906;81;25793;-82
2022/10/21 06:35:55;;;;;;;24.77;15.00;;;;;;;2.94;76.89;97558.50;1733760;81;25711;-83
2022/10/21 06:38:23;;;;;;;25.62;16.27;;;;;;;3.06;77.01;97561.22;1745715;81;25947;-82
2022/10/21 06:40:50;;;;;;;33.05;21.85;;;;;;;3.19;77.41;97547.44;1750054;81;25841;-82
2022/10/21 06:43:17;;;;;;;20.77;14.98;;;;;;;3.33;77.55;97553.48;1728766;81;28299;-83
2022/10/21 06:45:44;;;;;;;22.42;12.65;;;;;;;3.46;77.50;97555.69;1750083;81;25828;-82
2022/10/21 06:48:12;;;;;;;17.62;12.00;;;;;;;3.60;77.41;97567.07;1750102;81;25705;-82
2022/10/21 06:50:39;;;;;;;29.98;15.35;;;;;;;3.71;77.27;97570.76;1750068;81;25990;-82
2022/10/21 06:53:05;;;;;;;21.45;15.95;;;;;;;3.82;77.22;97583.79;1750130;81;26432;-82
2022/10/21 06:55:32;;;;;;;19.57;14.50;;;;;;;3.94;77.17;97586.48;1743265;81;27353;-82
2022/10/21 06:57:59;;;;;;;31.77;20.40;;;;;;;4.06;77.23;97574.12;1719951;81;25819;-82
2022/10/21 07:00:26;;;;;;;31.87;20.72;;;;;;;4.15;77.08;97575.79;1719836;81;25736;-82
2022/10/21 07:02:53;;;;;;;28.62;17.57;;;;;;;4.24;76.91;97578.78;1748730;81;26099;-82
2022/10/21 07:05:19;;;;;;;21.42;14.83;;;;;;;4.32;76.82;97580.14;1750117;81;26008;-82
2022/10/21 07:07:46;;;;;;;18.50;13.60;;;;;;;4.40;76.66;97573.95;1728678;81;27388;-83
2022/10/21 07:10:13;;;;;;;21.05;14.40;;;;;;;4.50;76.54;97579.45;1749998;81;25767;-82
2022/10/21 07:12:39;;;;;;;21.00;14.03;;;;;;;4.62;76.54;97578.59;1728934;81;25775;-81
2022/10/21 07:15:07;;;;;;;24.57;13.75;;;;;;;4.74;76.44;97573.72;1750128;81;25976;-82
2022/10/21 07:17:34;;;;;;;23.95;14.80;;;;;;;4.85;76.40;97568.00;1750110;81;25768;-82
2022/10/21 07:20:00;;;;;;;27.98;12.60;;;;;;;4.95;76.35;97567.33;1752667;81;28241;-82
2022/10/21 07:22:27;;;;;;;19.07;10.68;;;;;;;5.10;76.28;97569.59;1765029;81;25734;-82
2022/10/21 07:24:54;;;;;;;19.67;11.50;;;;;;;5.27;76.24;97563.19;1765397;80;25740;-82
2022/10/21 07:27:20;;;;;;;15.72;11.50;;;;;;;5.46;76.24;97554.37;1765443;81;26900;-82
2022/10/21 07:29:47;;;;;;;12.90;10.30;;;;;;;5.65;76.22;97546.75;1765268;80;25786;-83
2022/10/21 07:32:14;;;;;;;12.98;10.55;;;;;;;5.83;76.03;97550.47;1765367;80;27359;-82
2022/10/21 07:34:40;;;;;;;19.45;11.45;;;;;;;6.02;75.87;97556.74;1765270;80;25237;-83
2022/10/21 07:37:07;;;;;;;19.45;10.32;;;;;;;6.17;75.60;97555.43;1765560;80;25673;-82
2022/10/21 07:39:34;;;;;;;19.50;10.78;;;;;;;6.31;75.44;97565.88;1765532;80;26198;-82
2022/10/21 07:42:01;;;;;;;13.20;9.50;;;;;;;6.48;75.32;97563.39;1765512;80;25719;-82
2022/10/21 07:44:28;;;;;;;13.28;9.38;;;;;;;6.69;74.99;97552.78;1765077;80;28291;-83
2022/10/21 07:46:55;;;;;;;14.33;9.30;;;;;;;6.93;74.59;97553.03;1765032;80;25731;-83
2022/10/21 07:49:23;;;;;;;15.35;8.93;;;;;;;7.14;74.31;97552.27;1765540;80;25691;-83
2022/10/21 07:51:50;;;;;;;14.75;9.05;;;;;;;7.32;74.11;97540.66;1762522;80;25980;-83
2022/10/21 07:54:18;;;;;;;11.97;8.68;;;;;;;7.50;73.67;97540.23;1763241;80;25850;-83
2022/10/21 07:56:48;;;;;;;11.70;8.33;;;;;;;7.70;73.54;97535.11;1765016;80;27557;-83
2022/10/21 07:59:17;;;;;;;11.78;8.68;;;;;;;7.91;73.32;97533.77;1765254;80;25788;-82
2022/10/21 08:01:46;;;;;;;13.65;8.53;;;;;;;8.16;72.90;97534.22;1765349;80;25717;-83
2022/10/21 08:04:17;;;;;;;12.20;8.18;;;;;;;8.43;72.37;97531.28;1762037;80;26863;-83
2022/10/21 08:06:47;;;;;;;15.50;7.78;;;;;;;8.70;71.95;97525.05;1746820;80;25804;-83
2022/10/21 08:09:15;;;;;;;11.15;7.58;;;;;;;8.99;71.66;97515.93;1765046;80;28152;-82
2022/10/21 08:11:42;;;;;;;15.90;7.60;;;;;;;9.27;70.94;97506.45;1765289;80;25945;-82
2022/10/21 08:14:09;;;;;;;13.18;7.45;;;;;;;9.51;70.60;97493.80;1765327;81;25242;-83
2022/10/21 08:16:37;;;;;;;9.10;7.35;;;;;;;9.77;70.30;97493.56;1744058;80;26616;-82
2022/10/21 08:19:05;;;;;;;10.00;7.20;;;;;;;10.05;70.29;97487.47;1765459;80;25791;-83
2022/10/21 08:21:33;;;;;;;10.35;7.08;;;;;;;10.33;69.92;97490.84;1754954;79;27463;-83
2022/10/21 08:24:02;;;;;;;11.33;7.83;;;;;;;10.58;69.36;97487.52;1724486;81;25836;-83
2022/10/21 08:26:29;;;;;;;12.28;7.45;;;;;;;10.70;68.40;97485.83;1731243;81;25707;-83
2022/10/21 08:28:56;;;;;;;10.58;6.25;;;;;;;10.73;67.87;97483.55;1749850;81;25902;-82
2022/10/21 08:31:22;;;;;;;11.35;6.92;;;;;;;10.74;67.46;97478.98;1733702;81;25708;-83
2022/10/21 08:33:50;;;;;;;7.03;6.00;;;;;;;10.76;67.24;97466.08;1713915;81;27464;-82
2022/10/21 08:36:21;;;;;;;11.05;6.75;;;;;;;10.78;66.99;97465.35;1744420;81;25755;-83
2022/10/21 08:38:48;;;;;;;13.10;8.20;;;;;;;10.78;66.45;97466.70;1734306;81;25245;-84
2022/10/21 08:41:33;;;;;;;11.88;7.67;;;;;;;10.73;66.15;97470.57;1733245;81;26044;-83
2022/10/21 08:44:12;;;;;;;13.30;7.83;;;;;;;10.70;65.92;97475.03;1731783;81;25762;-84
2022/10/21 08:46:52;;;;;;;13.95;7.22;;;;;;;10.69;65.95;97457.17;1726331;81;28167;-82
2022/10/21 08:49:30;;;;;;;16.40;7.30;;;;;;;10.71;65.86;97461.84;1749946;81;25916;-87
2022/10/21 08:52:04;;;;;;;9.48;6.65;;;;;;;10.80;65.49;97457.88;1748252;80;25296;-84
2022/10/21 08:54:48;;;;;;;7.55;6.10;;;;;;;10.90;65.38;97446.11;1749509;81;25648;-84
2022/10/21 08:57:15;;;;;;;9.20;6.25;;;;;;;11.09;65.15;97449.28;1726147;80;25754;-83
2022/10/21 08:59:42;;;;;;;9.73;5.83;;;;;;;11.30;64.92;97454.07;1703018;81;28142;-83
2022/10/21 09:02:44;;;;;;;10.20;6.03;;;;;;;11.40;64.26;97439.58;1733374;81;25750;-83
2022/10/21 09:05:22;;;;;;;9.45;6.08;;;;;;;11.45;63.76;97446.52;1640285;86;26493;-83
2022/10/21 09:08:03;;;;;;;11.55;5.78;;;;;;;11.49;63.46;97444.50;1636271;86;26031;-84
2022/10/21 09:10:41;;;;;;;10.63;6.33;;;;;;;11.52;62.91;97440.03;1633605;86;25861;-85
2022/10/21 09:13:48;;;;;;;11.00;6.05;;;;;;;11.55;62.07;97440.13;1656231;86;27461;-86
2022/10/21 09:16:23;;;;;;;9.70;5.60;;;;;;;11.57;61.90;97436.69;1657365;86;25402;-82
2022/10/21 09:19:01;;;;;;;9.58;6.00;;;;;;;11.64;61.71;97437.46;1643597;86;25779;-85
2022/10/21 09:21:42;;;;;;;13.78;6.40;;;;;;;11.68;61.01;97433.29;1658263;84;26060;-82
2022/10/21 09:24:17;;;;;;;9.03;5.95;;;;;;;11.72;60.77;97435.84;1672283;85;25874;-83
2022/10/21 09:26:47;;;;;;;7.55;6.40;;;;;;;11.76;60.34;97429.00;1671776;85;27392;-87
2022/10/21 09:29:37;;;;;;;10.78;6.95;;;;;;;11.77;60.07;97429.83;1671761;85;25822;-86
2022/10/21 09:32:27;;;;;;;13.20;7.15;;;;;;;11.73;59.79;97432.09;1652695;85;25775;-85
2022/10/21 09:35:24;;;;;;;8.90;6.12;;;;;;;11.70;59.50;97423.09;1652900;85;25987;-85
2022/10/21 09:38:11;;;;;;;9.80;6.37;;;;;;;11.65;59.29;97424.25;1672221;85;25818;-83
2022/10/21 09:40:38;;;;;;;10.40;6.10;;;;;;;11.73;59.20;97423.16;1753415;80;28390;-86
2022/10/21 09:43:09;;;;;;;10.35;6.22;;;;;;;11.93;59.28;97416.30;1756140;80;25679;-87
2022/10/21 09:45:38;;;;;;;8.25;5.72;;;;;;;12.19;59.06;97414.75;1765320;80;25754;-83
2022/10/21 09:48:19;;;;;;;11.53;6.08;;;;;;;12.39;58.69;97399.14;1765547;81;26687;-83
2022/10/21 09:51:18;;;;;;;7.90;5.83;;;;;;;12.47;58.22;97398.84;1745842;80;25856;-84
2022/10/21 09:53:56;;;;;;;8.40;5.90;;;;;;;12.60;58.31;97396.01;1759678;80;27350;-83
2022/10/21 09:56:40;;;;;;;6.92;5.30;;;;;;;12.77;58.67;97391.36;1752384;80;25777;-84
2022/10/21 09:59:13;;;;;;;7.97;5.45;;;;;;;12.86;58.49;97382.70;1735116;80;25650;-83
2022/10/21 10:01:43;;;;;;;7.58;5.47;;;;;;;12.95;58.03;97380.52;1748971;80;26060;-83
2022/10/21 10:04:23;;;;;;;12.07;5.83;;;;;;;12.94;58.23;97374.78;1765471;81;25658;-85
2022/10/21 10:06:50;;;;;;;9.95;5.40;;;;;;;12.98;58.22;97376.83;1751143;80;27417;-84
2022/10/21 10:09:32;;;;;;;10.48;6.03;;;;;;;13.01;58.20;97373.38;1758675;80;25884;-83
2022/10/21 10:12:18;;;;;;;7.83;6.17;;;;;;;13.02;58.02;97381.27;1765018;81;25980;-84
2022/10/21 10:14:46;;;;;;;11.22;6.92;;;;;;;13.00;57.91;97383.38;1743644;80;27022;-84
2022/10/21 10:17:34;;;;;;;10.13;6.60;;;;;;;12.99;57.47;97381.72;1748782;80;25788;-85
2022/10/21 10:20:09;;;;;;;8.28;5.65;;;;;;;12.97;57.33;97375.70;1744177;80;28251;-85
2022/10/21 10:22:46;;;;;;;10.13;5.80;;;;;;;12.91;57.27;97385.58;1764946;80;25835;-85
2022/10/21 10:25:20;;;;;;;10.23;5.72;;;;;;;12.86;57.29;97376.45;1741497;80;25254;-83
2022/10/21 10:28:00;;;;;;;6.78;5.42;;;;;;;12.83;56.60;97366.06;1765467;80;26047;-85
2022/10/21 10:30:44;;;;;;;7.95;6.22;;;;;;;12.85;56.73;97360.73;1765561;81;25695;-85
2022/10/21 10:33:30;;;;;;;8.70;6.30;;;;;;;12.88;56.52;97354.87;1761612;80;27440;-85
2022/10/21 10:36:01;;;;;;;10.10;7.42;;;;;;;12.92;56.67;97349.27;1735117;80;25726;-84
2022/10/21 10:38:41;;;;;;;9.83;6.28;;;;;;;13.00;56.87;97344.09;1762538;80;25220;-85
2022/10/21 10:41:14;;;;;;;11.90;7.40;;;;;;;13.08;57.28;97336.98;1765167;80;26132;-84
2022/10/21 10:43:53;;;;;;;9.78;6.47;;;;;;;13.16;56.89;97335.90;1765213;80;25748;-85
2022/10/21 10:46:31;;;;;;;8.58;5.67;;;;;;;13.21;56.53;97332.78;1765104;81;26806;-83
2022/10/21 10:49:16;;;;;;;11.18;6.53;;;;;;;13.27;56.42;97337.30;1765459;81;25684;-86
2022/10/21 10:51:48;;;;;;;11.97;6.53;;;;;;;13.36;56.29;97328.83;1710122;82;25769;-85
2022/10/21 10:54:23;;;;;;;7.12;4.55;;;;;;;13.40;55.88;97333.58;1690754;84;26007;-83
2022/10/21 10:56:56;;;;;;;8.03;4.55;;;;;;;13.37;55.07;97330.48;1723791;82;26433;-84
2022/10/21 10:59:37;;;;;;;8.55;4.95;;;;;;;13.38;54.92;97325.37;1730810;82;27377;-85
2022/10/21 11:02:12;;;;;;;7.47;4.80;;;;;;;13.41;55.09;97319.46;1730928;82;26417;-85
2022/10/21 11:05:01;;;;;;;8.53;5.50;;;;;;;13.41;54.97;97320.81;1730789;82;25782;-85
2022/10/21 11:07:48;;;;;;;9.03;6.00;;;;;;;13.37;55.02;97310.98;1710114;82;26039;-86
2022/10/21 11:10:34;;;;;;;10.32;6.00;;;;;;;13.37;55.51;97305.56;1730913;82;25841;-85
2022/10/21 11:13:06;;;;;;;11.48;5.97;;;;;;;13.41;55.33;97305.91;1731029;82;27476;-82
2022/10/21 11:15:50;;;;;;;6.00;4.33;;;;;;;13.41;55.33;97286.39;1715924;81;25784;-84
2022/10/21 11:18:39;;;;;;;22.55;13.40;;;;;;;13.41;54.64;97276.91;1710308;82;25308;-85
2022/10/21 11:21:37;;;;;;;280.15;140.62;;;;;;;13.40;54.34;97267.67;1730964;81;26683;-85
2022/10/21 11:24:34;;;;;;;34.92;18.67;;;;;;;13.38;54.51;97261.66;1729384;82;26474;-84
2022/10/21 11:27:29;;;;;;;270.77;146.07;;;;;;;13.40;54.59;97250.05;1711467;82;27399;-83
2022/10/21 11:30:18;;;;;;;35.48;20.45;;;;;;;13.43;54.92;97240.08;1772334;80;25721;-84
2022/10/21 11:32:59;;;;;;;10.00;6.37;;;;;;;13.44;55.22;97229.00;1750198;81;25825;-84
2022/10/21 11:35:34;;;;;;;8.25;5.97;;;;;;;13.46;55.12;97220.64;1756831;80;25984;-84
2022/10/21 11:38:25;;;;;;;8.38;6.30;;;;;;;13.48;54.86;97223.95;1776862;80;25832;-85
2022/10/21 11:41:12;;;;;;;7.80;5.83;;;;;;;13.51;54.67;97212.64;1761894;80;26843;-84
2022/10/21 11:44:02;;;;;;;7.47;5.25;;;;;;;13.56;54.58;97207.32;1745867;80;25765;-84
2022/10/21 11:46:37;;;;;;;7.90;5.87;;;;;;;13.65;54.54;97212.68;1767180;80;26465;-84
2022/10/21 11:49:14;;;;;;;9.10;6.35;;;;;;;13.72;54.54;97200.38;1755731;80;26848;-84